Time;durP1;ratioP1;P1;durP2;ratioP2;P2;SDS_P1;SDS_P2;PMS_P1;PMS_P2;Temp;Humidity;BMP_temperature;BMP_pressure;BME280_temperature;BME280_humidity;BME280_pressure;Samples;Min_cycle;Max_cycle;Signal;HPM_P1;HPM_P2
2022/11/07 00:01:24;;;;;;;41.20;17.13;;;;;;;5.37;100.00;100595.31;4965853;57;1142902;-66
2022/11/07 00:06:29;;;;;;;33.90;14.57;;;;;;;5.29;100.00;100593.13;4967472;57;1140813;-63
2022/11/07 00:11:35;;;;;;;35.03;16.85;;;;;;;5.25;100.00;100578.02;4966375;57;1142897;-67
2022/11/07 00:16:41;;;;;;;41.48;17.77;;;;;;;5.22;100.00;100565.06;4966136;57;1143232;-65
2022/11/07 00:21:48;;;;;;;35.55;17.17;;;;;;;5.19;100.00;100569.66;5028903;56;1140889;-66
2022/11/07 00:26:54;;;;;;;52.98;19.55;;;;;;;5.14;100.00;100537.59;5125950;56;1140917;-64
2022/11/07 00:31:59;;;;;;;40.67;18.52;;;;;;;5.08;100.00;100520.41;5158199;55;1142990;-63
2022/11/07 00:37:05;;;;;;;32.00;15.88;;;;;;;5.08;100.00;100522.19;5204274;55;1143016;-65
2022/11/07 00:42:11;;;;;;;38.40;16.60;;;;;;;5.07;100.00;100552.80;5206207;55;1140884;-66
2022/11/07 00:47:17;;;;;;;32.00;16.73;;;;;;;4.97;100.00;100574.35;5101391;55;1143092;-68
2022/11/07 00:52:23;;;;;;;36.10;18.50;;;;;;;5.01;100.00;100558.85;5043940;56;1142993;-65
2022/11/07 00:57:29;;;;;;;43.63;18.67;;;;;;;5.04;100.00;100545.59;5043740;56;1142982;-66
2022/11/07 01:07:45;;;;;;;40.30;17.60;;;;;;;4.99;100.00;100521.39;5297962;55;47457;-63
2022/11/07 01:12:50;;;;;;;39.87;19.57;;;;;;;4.92;100.00;100511.23;5094027;56;1138843;-64
2022/11/07 01:17:56;;;;;;;38.83;20.00;;;;;;;4.85;100.00;100498.56;4981419;57;1142993;-65
2022/11/07 01:23:01;;;;;;;40.67;19.05;;;;;;;4.78;100.00;100503.73;4953474;57;1141024;-66
2022/11/07 01:28:09;;;;;;;36.30;17.57;;;;;;;4.77;100.00;100509.91;5066750;56;1143038;-65
2022/11/07 01:33:15;;;;;;;41.97;19.50;;;;;;;4.86;100.00;100519.45;5021250;56;1143320;-64
2022/11/07 01:38:21;;;;;;;54.30;22.63;;;;;;;4.95;100.00;100511.53;5066540;57;1143032;-64
2022/11/07 01:43:45;;;;;;;50.00;22.97;;;;;;;5.01;100.00;100503.34;4958976;57;1140948;-66
2022/11/07 01:49:05;;;;;;;43.07;21.90;;;;;;;5.02;100.00;100497.64;5065615;56;1140763;-64
2022/11/07 01:54:13;;;;;;;31.48;18.02;;;;;;;5.02;100.00;100498.95;5057519;56;1143185;-63
2022/11/07 01:59:22;;;;;;;46.07;22.33;;;;;;;5.05;100.00;100496.98;5066479;56;1143168;-64
2022/11/07 02:04:30;;;;;;;51.00;23.07;;;;;;;4.98;100.00;100495.64;5066167;56;1142957;-66
2022/11/07 02:09:36;;;;;;;41.50;19.73;;;;;;;4.94;100.00;100479.23;5097832;55;1141048;-66
2022/11/07 02:14:43;;;;;;;40.53;21.63;;;;;;;4.90;100.00;100475.09;5042948;56;1143238;-67
2022/11/07 02:19:55;;;;;;;43.10;22.20;;;;;;;4.90;100.00;100463.76;5097719;56;1143104;-68
2022/11/07 02:25:05;;;;;;;45.57;21.87;;;;;;;4.84;100.00;100454.48;5136595;56;1143199;-62
2022/11/07 02:30:21;;;;;;;39.03;20.50;;;;;;;4.76;100.00;100442.24;5120537;56;1141163;-66
2022/11/07 02:35:42;;;;;;;43.38;21.00;;;;;;;4.76;100.00;100441.40;5001704;56;1142924;-69
2022/11/07 02:40:58;;;;;;;46.97;22.93;;;;;;;4.76;100.00;100426.52;5039989;56;1142916;-64
2022/11/07 02:46:07;;;;;;;49.53;27.13;;;;;;;4.80;100.00;100442.47;5045628;56;1140835;-63
2022/11/07 02:51:14;;;;;;;53.25;26.15;;;;;;;4.80;100.00;100433.77;5064729;56;1141049;-64
2022/11/07 02:56:20;;;;;;;44.17;21.00;;;;;;;4.88;100.00;100435.05;5123494;55;1142901;-68
2022/11/07 03:01:26;;;;;;;39.92;21.93;;;;;;;4.88;100.00;100432.89;5148216;56;1143024;-68
2022/11/07 03:06:33;;;;;;;49.63;25.27;;;;;;;4.92;100.00;100425.21;5144913;56;1142953;-64
2022/11/07 03:11:39;;;;;;;43.03;23.77;;;;;;;4.92;100.00;100429.98;5059337;57;1140982;-64
2022/11/07 03:16:45;;;;;;;49.30;22.27;;;;;;;4.91;100.00;100433.54;5059212;57;1140991;-65
2022/11/07 03:21:51;;;;;;;36.67;21.87;;;;;;;4.92;100.00;100426.06;4961613;57;1142999;-63
2022/11/07 03:26:58;;;;;;;49.97;24.30;;;;;;;4.92;100.00;100416.89;4918640;58;1143212;-67
2022/11/07 03:32:04;;;;;;;45.90;24.82;;;;;;;4.91;100.00;100426.14;4976455;56;1140876;-63
2022/11/07 03:37:10;;;;;;;50.40;22.70;;;;;;;4.90;100.00;100421.36;4799615;59;1141051;-65
2022/11/07 03:42:16;;;;;;;43.43;23.43;;;;;;;4.95;100.00;100431.14;4804498;60;1143390;-63
2022/11/07 03:47:22;;;;;;;40.23;19.73;;;;;;;5.03;100.00;100424.63;4860090;58;1143394;-64
2022/11/07 03:52:29;;;;;;;53.45;24.30;;;;;;;5.12;100.00;100426.26;4830218;59;1142963;-68
2022/11/07 03:57:34;;;;;;;50.43;23.80;;;;;;;5.15;100.00;100424.78;4863761;59;1143177;-67
2022/11/07 04:02:40;;;;;;;44.20;21.10;;;;;;;5.16;100.00;100426.94;4938443;58;1143142;-66
2022/11/07 04:07:47;;;;;;;67.67;32.83;;;;;;;5.20;100.00;100424.03;5035321;57;1143054;-68
2022/11/07 04:18:17;;;;;;;59.80;30.57;;;;;;;5.31;100.00;100412.95;5098335;56;1143001;-68
2022/11/07 04:23:23;;;;;;;49.30;22.97;;;;;;;5.33;100.00;100414.18;4986542;56;1141122;-63
2022/11/07 04:28:29;;;;;;;45.97;23.47;;;;;;;5.31;100.00;100418.20;5113255;56;1143258;-64
2022/11/07 04:33:34;;;;;;;53.53;27.73;;;;;;;5.33;100.00;100420.27;4989941;56;1143180;-63
2022/11/07 04:38:41;;;;;;;49.57;23.63;;;;;;;5.41;100.00;100408.02;4944938;57;1143052;-66
2022/11/07 04:43:47;;;;;;;59.40;29.40;;;;;;;5.42;100.00;100411.02;4905398;57;1143408;-67
2022/11/07 04:48:53;;;;;;;49.87;24.80;;;;;;;5.42;100.00;100394.81;5028552;57;1141198;-66
2022/11/07 04:53:59;;;;;;;43.20;22.20;;;;;;;5.43;100.00;100400.44;5010117;57;1140977;-64
2022/11/07 04:59:04;;;;;;;43.78;22.40;;;;;;;5.44;100.00;100392.10;5029274;57;1143020;-64
2022/11/07 05:04:10;;;;;;;59.38;29.52;;;;;;;5.46;100.00;100387.16;5029425;57;1143283;-65
2022/11/07 05:09:18;;;;;;;50.73;25.77;;;;;;;5.43;100.00;100379.45;5029144;57;1142977;-67
2022/11/07 05:14:23;;;;;;;35.03;20.23;;;;;;;5.42;100.00;100386.09;5030016;57;1141221;-67
2022/11/07 05:19:30;;;;;;;37.60;21.00;;;;;;;5.39;100.00;100384.96;5042421;57;1141264;-67
2022/11/07 05:24:36;;;;;;;38.87;19.53;;;;;;;5.36;100.00;100396.94;5061942;56;1143123;-66
2022/11/07 05:29:42;;;;;;;37.87;20.23;;;;;;;5.35;100.00;100395.27;5073332;56;1143019;-66
2022/11/07 05:34:49;;;;;;;37.27;19.67;;;;;;;5.31;100.00;100391.98;5106041;56;1142973;-68
2022/11/07 05:39:56;;;;;;;50.23;21.10;;;;;;;5.23;100.00;100383.69;5147082;56;1143040;-65
2022/11/07 05:45:01;;;;;;;38.60;20.60;;;;;;;5.26;100.00;100401.88;5124870;56;1252774;-68
2022/11/07 05:50:07;;;;;;;34.98;19.50;;;;;;;5.25;100.00;100402.34;5137041;56;1143309;-67
2022/11/07 05:55:13;;;;;;;31.77;18.60;;;;;;;5.24;100.00;100409.83;5127012;56;1142907;-66
2022/11/07 06:00:19;;;;;;;37.50;18.43;;;;;;;5.28;100.00;100413.13;5106320;56;1143219;-68
2022/11/07 06:05:25;;;;;;;44.23;20.00;;;;;;;5.28;100.00;100413.13;5046626;56;1141042;-68
2022/11/07 06:10:31;;;;;;;32.88;16.42;;;;;;;5.30;100.00;100420.44;5095554;56;1143097;-66
2022/11/07 06:15:38;;;;;;;36.90;17.47;;;;;;;5.34;100.00;100417.19;5036029;57;1143107;-66
2022/11/07 06:20:43;;;;;;;31.63;15.43;;;;;;;5.35;100.00;100431.48;5028455;57;1143113;-66
2022/11/07 06:25:51;;;;;;;37.23;18.10;;;;;;;5.38;100.00;100432.63;4988792;57;1143036;-67
2022/11/07 06:31:02;;;;;;;38.63;18.23;;;;;;;5.44;100.00;100428.83;4994034;57;1143161;-66
2022/11/07 06:36:13;;;;;;;34.33;17.10;;;;;;;5.44;100.00;100440.63;4989542;57;1140993;-65
2022/11/07 06:41:18;;;;;;;29.43;14.80;;;;;;;5.47;100.00;100444.39;5018241;57;1142872;-63
2022/11/07 06:46:24;;;;;;;34.30;15.40;;;;;;;5.52;100.00;100448.88;5062021;57;1143002;-64
2022/11/07 06:51:30;;;;;;;32.90;15.53;;;;;;;5.55;100.00;100450.02;5036892;57;1142951;-66
2022/11/07 06:56:35;;;;;;;28.77;14.70;;;;;;;5.55;100.00;100438.22;5015137;57;1143079;-66
2022/11/07 07:01:41;;;;;;;21.33;10.60;;;;;;;5.65;100.00;100449.39;5051131;57;1142930;-68
2022/11/07 07:06:46;;;;;;;24.23;11.63;;;;;;;5.68;100.00;100448.84;5061861;57;1142961;-68
2022/11/07 07:11:52;;;;;;;22.57;11.93;;;;;;;5.72;100.00;100456.91;5055929;57;1142998;-64
2022/11/07 07:16:58;;;;;;;20.87;11.50;;;;;;;5.81;100.00;100461.61;5053660;57;1143134;-66
2022/11/07 07:22:04;;;;;;;27.80;12.60;;;;;;;5.83;100.00;100464.53;5121874;56;1143147;-68
2022/11/07 07:27:09;;;;;;;23.15;12.82;;;;;;;5.89;100.00;100470.77;5124077;56;1142871;-65
2022/11/07 07:32:15;;;;;;;19.15;10.75;;;;;;;5.92;100.00;100471.91;5049094;57;1143011;-66
2022/11/07 07:37:21;;;;;;;22.77;11.50;;;;;;;5.90;100.00;100465.91;5048659;57;1142919;-62
2022/11/07 07:42:26;;;;;;;23.33;12.47;;;;;;;6.05;100.00;100466.77;5049052;57;1142927;-63
2022/11/07 07:47:32;;;;;;;23.30;11.10;;;;;;;6.18;100.00;100464.25;5084392;56;1142871;-65
2022/11/07 07:52:39;;;;;;;27.07;13.90;;;;;;;6.38;100.00;100473.55;4991149;57;1143215;-66
2022/11/07 07:57:45;;;;;;;30.53;13.83;;;;;;;6.54;100.00;100458.08;5126574;56;1142802;-66
2022/11/07 08:02:50;;;;;;;21.47;12.13;;;;;;;6.84;100.00;100466.30;5030034;57;1142853;-67
2022/11/07 08:07:56;;;;;;;20.20;10.47;;;;;;;7.04;100.00;100473.28;5125186;56;1142835;-63
2022/11/07 08:13:02;;;;;;;20.95;11.35;;;;;;;7.18;100.00;100471.58;4964130;57;1142919;-70
2022/11/07 08:18:08;;;;;;;23.00;11.57;;;;;;;7.35;100.00;100469.52;4979111;56;1143179;-67
2022/11/07 08:23:13;;;;;;;23.17;11.77;;;;;;;7.53;100.00;100471.90;5011560;57;1143211;-68
2022/11/07 08:28:22;;;;;;;27.47;12.90;;;;;;;7.66;100.00;100460.92;5042012;57;1143106;-66
2022/11/07 08:33:28;;;;;;;21.17;10.17;;;;;;;7.73;100.00;100462.22;5052392;56;1142934;-66
2022/11/07 08:38:35;;;;;;;25.07;9.93;;;;;;;7.85;100.00;100459.23;5041703;57;1142949;-69
2022/11/07 08:43:41;;;;;;;13.53;7.80;;;;;;;7.95;100.00;100453.23;5069205;56;1140916;-66
2022/11/07 08:48:47;;;;;;;14.83;10.30;;;;;;;8.02;100.00;100463.73;5087151;56;1141035;-70
2022/11/07 08:53:53;;;;;;;17.57;9.43;;;;;;;8.08;100.00;100484.87;5107892;56;1143303;-65
2022/11/07 08:58:58;;;;;;;16.83;9.20;;;;;;;8.20;100.00;100483.19;5125315;56;1141159;-68
2022/11/07 09:04:04;;;;;;;12.70;8.33;;;;;;;8.28;100.00;100488.77;5008939;56;1140978;-71
2022/11/07 09:09:10;;;;;;;16.05;7.87;;;;;;;8.46;100.00;100493.66;5041662;56;1140897;-66
2022/11/07 09:14:16;;;;;;;12.60;6.90;;;;;;;8.60;100.00;100494.01;5040724;56;1141004;-70
2022/11/07 09:19:21;;;;;;;13.15;7.53;;;;;;;8.80;100.00;100494.78;5064786;56;1140880;-67
2022/11/07 09:24:27;;;;;;;11.73;6.83;;;;;;;8.81;100.00;100495.16;5060887;57;1140968;-68
2022/11/07 09:29:33;;;;;;;12.83;6.00;;;;;;;8.86;100.00;100497.44;5052323;56;1141045;-67
2022/11/07 09:34:39;;;;;;;9.40;6.47;;;;;;;8.92;100.00;100495.70;4980099;57;1140983;-70
2022/11/07 09:39:45;;;;;;;12.35;6.72;;;;;;;8.95;100.00;100505.20;4979936;57;1138708;-66
2022/11/07 09:45:01;;;;;;;10.07;6.60;;;;;;;8.95;100.00;100507.36;4980665;57;1140889;-71
2022/11/07 09:50:31;;;;;;;12.50;6.80;;;;;;;8.92;100.00;100514.16;4980503;57;1140929;-69
2022/11/07 09:55:51;;;;;;;11.07;5.73;;;;;;;8.89;100.00;100522.77;4979534;57;1141068;-70
2022/11/07 10:01:01;;;;;;;10.43;7.23;;;;;;;8.87;100.00;100529.46;4978687;57;1140983;-68
2022/11/07 10:06:23;;;;;;;8.87;5.93;;;;;;;8.86;100.00;100527.77;5062431;57;1140924;-65
2022/11/07 10:11:57;;;;;;;9.80;5.43;;;;;;;8.81;100.00;100536.03;4999197;57;1138837;-67
2022/11/07 10:17:16;;;;;;;14.10;6.75;;;;;;;8.79;100.00;100535.29;4981069;58;1138670;-68
2022/11/07 10:22:26;;;;;;;11.95;7.00;;;;;;;8.77;100.00;100534.55;5024191;57;1140889;-68
2022/11/07 10:27:32;;;;;;;9.50;6.33;;;;;;;8.80;100.00;100538.30;4975985;58;1140801;-66
2022/11/07 10:32:45;;;;;;;10.67;5.70;;;;;;;8.78;100.00;100540.19;5112280;56;1138851;-66
2022/11/07 10:37:58;;;;;;;9.75;6.55;;;;;;;8.81;100.00;100540.45;5106320;56;1140903;-67
2022/11/07 10:43:11;;;;;;;8.40;4.80;;;;;;;8.79;100.00;100531.81;5092198;56;1138790;-67
2022/11/07 10:48:17;;;;;;;10.38;6.50;;;;;;;8.84;100.00;100539.41;5079223;56;1138694;-66
2022/11/07 10:53:25;;;;;;;16.52;12.40;;;;;;;8.89;100.00;100537.27;5093842;56;1140815;-68
2022/11/07 10:58:34;;;;;;;25.90;11.90;;;;;;;8.92;100.00;100529.15;5137260;56;1142813;-69
2022/11/07 11:03:47;;;;;;;59.80;42.13;;;;;;;9.01;100.00;100536.43;5059478;56;1142867;-66
2022/11/07 11:08:53;;;;;;;11.22;6.80;;;;;;;9.03;100.00;100528.75;5115624;56;1143052;-69
2022/11/07 11:14:11;;;;;;;22.87;13.95;;;;;;;9.08;100.00;100526.64;5132550;56;1140900;-69
2022/11/07 11:19:30;;;;;;;16.27;7.50;;;;;;;9.15;100.00;100529.69;5059776;57;1143418;-65
2022/11/07 11:24:37;;;;;;;12.60;6.47;;;;;;;9.26;100.00;100527.12;5053108;56;1140913;-69
2022/11/07 11:30:06;;;;;;;10.80;7.07;;;;;;;9.39;100.00;100520.47;5060494;56;1141045;-64
2022/11/07 11:35:54;;;;;;;11.48;5.58;;;;;;;9.45;100.00;100514.76;5111418;56;1141021;-65
2022/11/07 11:41:04;;;;;;;6.90;4.20;;;;;;;9.56;100.00;100519.25;5112312;56;1140891;-69
2022/11/07 11:46:38;;;;;;;13.57;5.83;;;;;;;9.60;100.00;100524.20;5084256;56;1138869;-67
2022/11/07 11:51:58;;;;;;;10.57;6.17;;;;;;;9.67;100.00;100533.34;5084727;56;1140968;-68
2022/11/07 11:57:11;;;;;;;18.23;9.57;;;;;;;9.69;100.00;100531.91;5020712;57;1141269;-71
2022/11/07 12:03:08;;;;;;;11.30;5.40;;;;;;;9.74;100.00;100532.42;5028503;56;1140716;-68
2022/11/07 12:08:33;;;;;;;8.97;5.63;;;;;;;9.81;100.00;100530.52;5028395;57;1140983;-66
2022/11/07 12:13:58;;;;;;;13.03;6.33;;;;;;;9.90;100.00;100521.09;5112712;56;1138737;-67
2022/11/07 12:19:33;;;;;;;5.22;4.40;;;;;;;10.01;100.00;100537.45;5113369;56;1141132;-69
2022/11/07 12:24:58;;;;;;;8.17;4.47;;;;;;;10.11;100.00;100530.02;5110138;56;1141033;-69
2022/11/07 12:30:21;;;;;;;5.33;4.20;;;;;;;10.25;100.00;100529.01;5123185;56;1141166;-67
2022/11/07 12:36:03;;;;;;;8.20;4.90;;;;;;;10.38;100.00;100530.27;5123164;56;1140969;-66
2022/11/07 12:41:25;;;;;;;9.77;4.80;;;;;;;10.45;100.00;100524.84;5123146;56;1140955;-65
2022/11/07 12:46:54;;;;;;;10.07;5.10;;;;;;;10.48;100.00;100528.58;5122978;56;1140924;-69
2022/11/07 12:52:33;;;;;;;8.57;4.37;;;;;;;10.51;100.00;100534.48;5122942;56;1143199;-69
2022/11/07 12:57:40;;;;;;;11.70;5.40;;;;;;;10.58;100.00;100528.22;5122968;56;1141152;-68
2022/11/07 13:03:00;;;;;;;9.17;4.53;;;;;;;10.58;100.00;100528.22;5122665;56;1142823;-67
2022/11/07 13:08:11;;;;;;;11.70;5.00;;;;;;;10.61;100.00;100518.73;5070426;56;1140976;-68
2022/11/07 13:13:27;;;;;;;8.73;4.83;;;;;;;11.20;100.00;100510.05;5072501;56;1143104;-67
2022/11/07 13:18:33;;;;;;;12.67;4.80;;;;;;;11.86;100.00;100502.05;5039101;56;1140774;-66
2022/11/07 13:23:39;;;;;;;8.03;4.03;;;;;;;12.30;100.00;100509.75;4960082;58;1142878;-65
2022/11/07 13:28:58;;;;;;;8.67;4.67;;;;;;;12.08;100.00;100516.98;4953095;57;1140739;-65
2022/11/07 13:34:25;;;;;;;7.77;4.43;;;;;;;11.63;100.00;100517.14;5021796;56;1140970;-68
2022/11/07 13:39:31;;;;;;;6.55;4.35;;;;;;;11.35;100.00;100518.55;5044348;56;1141119;-69
2022/11/07 13:44:38;;;;;;;4.93;3.93;;;;;;;11.13;100.00;100510.19;5035959;56;1141046;-66
2022/11/07 13:49:47;;;;;;;9.67;4.27;;;;;;;11.01;100.00;100521.73;5016200;58;1140845;-65
2022/11/07 13:55:12;;;;;;;7.50;4.07;;;;;;;10.94;100.00;100528.48;5024220;56;1141095;-68
2022/11/07 14:00:19;;;;;;;14.00;6.33;;;;;;;10.89;100.00;100541.23;5021083;56;1141084;-67
2022/11/07 14:05:33;;;;;;;10.32;5.75;;;;;;;10.86;100.00;100544.95;5055611;56;1143185;-67
2022/11/07 14:10:46;;;;;;;9.40;4.77;;;;;;;10.79;100.00;100547.73;5062008;56;1143026;-68
2022/11/07 14:15:57;;;;;;;16.63;9.47;;;;;;;10.73;100.00;100548.20;5046155;56;1140899;-68
2022/11/07 14:21:04;;;;;;;15.93;6.50;;;;;;;10.69;100.00;100552.06;5068824;56;1143180;-68
2022/11/07 14:26:32;;;;;;;39.33;14.77;;;;;;;10.63;100.00;100540.62;5027603;56;1144770;-69
2022/11/07 14:31:38;;;;;;;66.97;21.50;;;;;;;10.62;100.00;100540.26;4953409;57;1145054;-67
2022/11/07 14:36:51;;;;;;;42.37;17.63;;;;;;;10.59;100.00;100541.81;5069535;56;1145124;-66
2022/11/07 14:42:01;;;;;;;41.80;17.27;;;;;;;10.48;100.00;100534.72;5034594;56;1145106;-67
2022/11/07 14:47:11;;;;;;;17.37;9.03;;;;;;;10.50;100.00;100530.64;5061763;56;1197862;-66
2022/11/07 14:52:26;;;;;;;16.25;6.92;;;;;;;10.45;100.00;100531.45;5073276;56;1143135;-66
2022/11/07 14:57:36;;;;;;;25.10;9.13;;;;;;;10.45;100.00;100538.07;5056195;56;1143041;-70
2022/11/07 15:02:42;;;;;;;22.73;8.03;;;;;;;10.42;100.00;100542.27;5044586;56;1143043;-67
2022/11/07 15:07:49;;;;;;;18.97;9.47;;;;;;;10.47;100.00;100546.73;5053497;56;1142909;-67
2022/11/07 15:13:01;;;;;;;30.17;9.80;;;;;;;10.48;100.00;100543.97;5070670;56;1142936;-66
2022/11/07 15:18:23;;;;;;;26.15;10.10;;;;;;;10.50;100.00;100539.41;5086938;56;1142938;-68
2022/11/07 15:23:35;;;;;;;66.47;29.43;;;;;;;10.53;100.00;100543.62;5068336;56;1144962;-68
2022/11/07 15:28:50;;;;;;;78.30;28.10;;;;;;;10.54;100.00;100542.16;5077050;56;1145169;-68
2022/11/07 15:33:59;;;;;;;55.33;19.93;;;;;;;10.54;100.00;100536.87;5057809;56;1145209;-68
2022/11/07 15:39:05;;;;;;;49.27;16.87;;;;;;;10.52;100.00;100543.27;5042024;56;1145102;-68
2022/11/07 15:44:10;;;;;;;72.47;34.03;;;;;;;10.48;100.00;100537.84;5053899;56;1145022;-68
2022/11/07 15:49:16;;;;;;;72.65;34.58;;;;;;;10.46;100.00;100529.17;5095217;56;1145127;-69
2022/11/07 15:54:22;;;;;;;67.70;29.77;;;;;;;10.42;100.00;100533.01;5052164;56;1145100;-71
2022/11/07 15:59:35;;;;;;;42.08;18.65;;;;;;;10.35;100.00;100533.98;5047744;57;1144950;-66
2022/11/07 16:04:42;;;;;;;79.70;25.68;;;;;;;10.31;100.00;100543.09;5052349;56;1145452;-65
2022/11/07 16:09:48;;;;;;;72.70;28.17;;;;;;;10.27;100.00;100544.75;5048113;56;1145326;-71
2022/11/07 16:14:58;;;;;;;47.23;18.77;;;;;;;10.23;100.00;100548.94;5076942;56;1145370;-68
2022/11/07 16:20:02;;;;;;;67.37;24.13;;;;;;;10.16;100.00;100550.34;5077102;56;1145077;-67
2022/11/07 16:25:11;;;;;;;53.48;22.05;;;;;;;10.11;100.00;100553.80;5057042;57;1145183;-69
2022/11/07 16:30:18;;;;;;;62.75;21.62;;;;;;;10.08;100.00;100551.39;5059342;56;1145296;-69
2022/11/07 16:35:24;;;;;;;52.93;21.73;;;;;;;10.03;100.00;100550.91;5035310;56;1145087;-67
2022/11/07 16:40:29;;;;;;;53.80;19.57;;;;;;;9.98;100.00;100545.12;4975948;56;1145519;-69
2022/11/07 16:45:37;;;;;;;53.20;22.13;;;;;;;9.96;100.00;100544.86;5032237;57;1143243;-66
2022/11/07 16:50:54;;;;;;;26.47;12.60;;;;;;;9.93;100.00;100558.33;5046672;56;1143034;-65
2022/11/07 16:56:05;;;;;;;30.13;15.57;;;;;;;9.88;100.00;100553.38;5052776;57;1143354;-69
2022/11/07 17:01:12;;;;;;;37.60;17.50;;;;;;;9.85;100.00;100559.72;4998354;57;1143378;-67
2022/11/07 17:06:22;;;;;;;44.75;19.42;;;;;;;9.79;100.00;100561.95;5060281;56;1143420;-66
2022/11/07 17:11:28;;;;;;;37.13;17.82;;;;;;;9.77;100.00;100571.34;5106745;56;1143166;-68
2022/11/07 17:16:35;;;;;;;31.35;14.28;;;;;;;9.73;100.00;100573.83;5144344;56;1143131;-69
2022/11/07 17:21:49;;;;;;;34.77;16.43;;;;;;;9.74;100.00;100576.84;4990275;56;1143145;-67
2022/11/07 17:26:53;;;;;;;37.42;21.42;;;;;;;9.70;100.00;100572.73;5037336;56;1143124;-68
2022/11/07 17:31:58;;;;;;;39.50;17.07;;;;;;;9.64;100.00;100572.32;5059370;57;1143169;-67
2022/11/07 17:37:04;;;;;;;26.40;13.80;;;;;;;9.60;100.00;100561.64;5038103;57;1143179;-69
2022/11/07 17:42:10;;;;;;;26.53;12.90;;;;;;;9.60;100.00;100563.80;4967405;57;1143006;-67
2022/11/07 17:47:25;;;;;;;34.40;16.77;;;;;;;9.60;100.00;100566.45;4967795;58;1143019;-67
2022/11/07 17:52:32;;;;;;;54.17;24.70;;;;;;;9.63;100.00;100565.35;4985374;57;1143217;-68
2022/11/07 17:57:38;;;;;;;56.93;30.33;;;;;;;9.65;100.00;100574.02;4945939;57;1143079;-68
2022/11/07 18:02:45;;;;;;;32.07;15.87;;;;;;;9.64;100.00;100576.28;4847391;59;1143167;-68
2022/11/07 18:07:51;;;;;;;43.90;20.20;;;;;;;9.64;100.00;100576.28;4980286;57;1143181;-65
2022/11/07 18:12:57;;;;;;;48.00;27.40;;;;;;;9.68;100.00;100582.56;4967874;58;1143078;-66
2022/11/07 18:18:03;;;;;;;37.10;24.07;;;;;;;9.71;100.00;100580.18;4966606;57;1194585;-67
2022/11/07 18:23:10;;;;;;;40.53;24.43;;;;;;;9.74;100.00;100568.92;4889205;58;1143214;-68
2022/11/07 18:28:15;;;;;;;23.47;11.65;;;;;;;9.75;100.00;100573.25;4889502;59;1153006;-68
2022/11/07 18:33:21;;;;;;;20.60;11.15;;;;;;;9.78;100.00;100570.36;4956687;57;1143344;-64
2022/11/07 18:38:28;;;;;;;31.68;15.32;;;;;;;9.83;100.00;100566.06;5077275;56;1143195;-66
2022/11/07 18:43:35;;;;;;;46.57;26.60;;;;;;;9.85;100.00;100568.13;5123555;56;1143027;-65
2022/11/07 18:48:41;;;;;;;26.23;15.48;;;;;;;9.87;100.00;100568.38;5123500;56;1143014;-65
2022/11/07 18:53:48;;;;;;;20.13;12.83;;;;;;;9.91;100.00;100576.08;5123385;56;1142954;-67
2022/11/07 18:58:55;;;;;;;19.60;11.43;;;;;;;9.93;100.00;100568.38;5087178;56;1142895;-67
2022/11/07 19:04:04;;;;;;;30.57;18.20;;;;;;;9.95;100.00;100582.33;5078198;56;1143379;-66
2022/11/07 19:09:10;;;;;;;23.60;12.47;;;;;;;9.99;100.00;100579.83;4994321;56;1140926;-68
2022/11/07 19:14:16;;;;;;;31.10;16.10;;;;;;;10.06;100.00;100582.39;5143427;57;1141305;-69
2022/11/07 19:19:22;;;;;;;24.57;14.67;;;;;;;10.10;100.00;100577.22;5077110;57;1143102;-68
2022/11/07 19:24:27;;;;;;;26.00;9.80;;;;;;;10.14;100.00;100580.48;5098920;56;1145031;-68
2022/11/07 19:29:33;;;;;;;20.67;11.33;;;;;;;10.17;100.00;100583.75;4998793;57;1142819;-67
2022/11/07 19:34:39;;;;;;;19.03;10.10;;;;;;;10.20;100.00;100586.20;5093296;56;1144890;-65
2022/11/07 19:39:45;;;;;;;14.60;8.97;;;;;;;10.19;100.00;100588.48;5120638;56;1143205;-66
2022/11/07 19:44:50;;;;;;;21.87;10.43;;;;;;;10.23;100.00;100585.14;5006095;56;1143176;-66
2022/11/07 19:49:56;;;;;;;23.73;11.43;;;;;;;10.24;100.00;100589.44;5031119;56;1145390;-65
2022/11/07 19:55:02;;;;;;;18.37;11.13;;;;;;;10.27;100.00;100592.33;5032807;56;1144980;-65
2022/11/07 20:00:09;;;;;;;22.30;13.35;;;;;;;10.27;100.00;100593.66;5060448;56;1145197;-69
2022/11/07 20:05:22;;;;;;;21.12;8.48;;;;;;;10.27;100.00;100598.94;5064411;56;1145205;-66
2022/11/07 20:10:25;;;;;;;19.03;9.80;;;;;;;10.25;100.00;100599.53;5067498;56;1143062;-68
2022/11/07 20:15:31;;;;;;;16.13;8.10;;;;;;;10.27;100.00;100602.43;5068400;56;1142925;-66
2022/11/07 20:20:37;;;;;;;23.43;11.70;;;;;;;10.28;100.00;100609.87;5065571;56;1142877;-69
2022/11/07 20:25:43;;;;;;;16.13;8.67;;;;;;;10.30;100.00;100604.84;5074071;56;1145016;-67
2022/11/07 20:30:54;;;;;;;20.65;8.68;;;;;;;10.33;100.00;100612.55;5055893;56;1142966;-69
2022/11/07 20:36:04;;;;;;;23.33;8.27;;;;;;;10.35;100.00;100607.16;4952729;57;1143158;-70
2022/11/07 20:41:12;;;;;;;18.40;10.70;;;;;;;10.36;100.00;100607.52;5007793;56;1143123;-67
2022/11/07 20:46:17;;;;;;;21.55;11.73;;;;;;;10.37;100.00;100607.41;5058026;56;1145150;-69
2022/11/07 20:51:25;;;;;;;15.20;8.83;;;;;;;10.39;100.00;100614.72;5059341;57;1145188;-66
2022/11/07 20:56:32;;;;;;;26.03;13.80;;;;;;;10.40;100.00;100615.56;5111657;56;1142952;-67
2022/11/07 21:01:39;;;;;;;15.33;9.07;;;;;;;10.40;100.00;100609.80;5069696;56;1145340;-67
2022/11/07 21:06:45;;;;;;;16.83;8.67;;;;;;;10.42;100.00;100603.08;5063273;57;1143247;-66
2022/11/07 21:11:50;;;;;;;19.27;9.07;;;;;;;10.45;100.00;100610.30;5063077;57;1143027;-66
2022/11/07 21:16:56;;;;;;;15.87;8.70;;;;;;;10.43;100.00;100602.12;5087531;56;1143107;-67
2022/11/07 21:22:03;;;;;;;20.37;9.83;;;;;;;10.42;100.00;100611.00;5075077;56;1143478;-71
2022/11/07 21:27:12;;;;;;;21.02;8.48;;;;;;;10.41;100.00;100612.80;5096078;56;1142980;-68
2022/11/07 21:32:18;;;;;;;21.15;9.10;;;;;;;10.41;100.00;100621.22;5105099;56;1143121;-71
2022/11/07 21:37:24;;;;;;;15.47;8.47;;;;;;;10.40;100.00;100615.56;5106876;56;1143013;-69
2022/11/07 21:42:30;;;;;;;16.63;7.67;;;;;;;10.40;100.00;100620.84;5065296;56;1143169;-66
2022/11/07 21:47:37;;;;;;;17.67;8.67;;;;;;;10.40;100.00;100618.20;5058451;57;1143072;-69
2022/11/07 21:52:43;;;;;;;22.17;9.37;;;;;;;10.41;100.00;100622.54;5059139;57;1143196;-69
2022/11/07 21:57:50;;;;;;;16.77;8.33;;;;;;;10.39;100.00;100617.88;5063897;57;1142940;-69
2022/11/07 22:02:56;;;;;;;17.02;8.68;;;;;;;10.40;100.00;100625.66;5058468;57;1142943;-69
2022/11/07 22:08:01;;;;;;;17.50;8.57;;;;;;;10.40;100.00;100624.34;5058886;57;1143100;-68
2022/11/07 22:13:08;;;;;;;17.90;9.28;;;;;;;10.40;100.00;100619.05;5059267;57;1143169;-70
2022/11/07 22:18:13;;;;;;;17.52;8.20;;;;;;;10.41;100.00;100619.89;5003508;57;1143098;-69
2022/11/07 22:23:19;;;;;;;14.47;6.97;;;;;;;10.40;100.00;100621.70;4964381;57;1143239;-67
2022/11/07 22:28:25;;;;;;;17.73;8.47;;;;;;;10.42;100.00;100621.58;4964331;57;1143149;-70
2022/11/07 22:33:31;;;;;;;13.93;7.10;;;;;;;10.43;100.00;100622.80;4984858;57;1143032;-68
2022/11/07 22:38:38;;;;;;;19.20;6.77;;;;;;;10.46;100.00;100619.08;5002106;57;1143143;-67
2022/11/07 22:43:46;;;;;;;13.23;6.53;;;;;;;10.47;100.00;100622.09;5036632;56;1143140;-66
2022/11/07 22:48:53;;;;;;;10.80;6.17;;;;;;;10.50;100.00;100627.16;5130144;56;1143174;-68
2022/11/07 22:54:02;;;;;;;16.10;6.47;;;;;;;10.51;100.00;100629.69;5132404;56;1142973;-68
2022/11/07 22:59:10;;;;;;;18.65;6.75;;;;;;;10.55;100.00;100621.02;5134549;56;1143352;-68
2022/11/07 23:04:17;;;;;;;12.40;5.95;;;;;;;10.57;100.00;100624.39;5134855;56;1143006;-67